sensor_id;sensor_type;location;lat;lon;timestamp;P1;durP1;ratioP1;P2;durP2;ratioP2
11735;SDS011;5924;51.398;7.088;2023-04-15T00:02:14;5.87;;;5.00;;
11735;SDS011;5924;51.398;7.088;2023-04-15T00:04:46;11.10;;;6.20;;
11735;SDS011;5924;51.398;7.088;2023-04-15T00:07:12;11.80;;;7.47;;
11735;SDS011;5924;51.398;7.088;2023-04-15T00:09:40;22.43;;;7.43;;
11735;SDS011;5924;51.398;7.088;2023-04-15T00:12:06;17.47;;;8.47;;
11735;SDS011;5924;51.398;7.088;2023-04-15T00:14:33;27.20;;;8.93;;
11735;SDS011;5924;51.398;7.088;2023-04-15T00:17:00;22.00;;;8.60;;
11735;SDS011;5924;51.398;7.088;2023-04-15T00:19:27;17.80;;;8.87;;
11735;SDS011;5924;51.398;7.088;2023-04-15T00:21:53;27.13;;;9.70;;
11735;SDS011;5924;51.398;7.088;2023-04-15T00:24:19;20.53;;;9.30;;
11735;SDS011;5924;51.398;7.088;2023-04-15T00:26:45;16.67;;;8.07;;
11735;SDS011;5924;51.398;7.088;2023-04-15T00:29:11;18.00;;;7.63;;
11735;SDS011;5924;51.398;7.088;2023-04-15T00:31:37;14.20;;;6.57;;
11735;SDS011;5924;51.398;7.088;2023-04-15T00:34:03;6.87;;;5.83;;
11735;SDS011;5924;51.398;7.088;2023-04-15T00:36:28;9.90;;;5.10;;
11735;SDS011;5924;51.398;7.088;2023-04-15T00:38:55;8.70;;;6.30;;
11735;SDS011;5924;51.398;7.088;2023-04-15T00:41:21;5.67;;;5.07;;
11735;SDS011;5924;51.398;7.088;2023-04-15T00:43:47;11.90;;;6.50;;
11735;SDS011;5924;51.398;7.088;2023-04-15T00:46:13;6.07;;;5.57;;
11735;SDS011;5924;51.398;7.088;2023-04-15T00:48:40;7.67;;;4.97;;
11735;SDS011;5924;51.398;7.088;2023-04-15T00:51:06;5.70;;;5.20;;
11735;SDS011;5924;51.398;7.088;2023-04-15T00:53:33;9.10;;;5.60;;
11735;SDS011;5924;51.398;7.088;2023-04-15T00:55:59;8.27;;;7.33;;
11735;SDS011;5924;51.398;7.088;2023-04-15T00:58:25;9.73;;;6.13;;
11735;SDS011;5924;51.398;7.088;2023-04-15T01:00:51;13.70;;;8.40;;
11735;SDS011;5924;51.398;7.088;2023-04-15T01:03:18;15.20;;;7.57;;
11735;SDS011;5924;51.398;7.088;2023-04-15T01:05:44;10.03;;;6.80;;
11735;SDS011;5924;51.398;7.088;2023-04-15T01:08:10;14.67;;;7.00;;
11735;SDS011;5924;51.398;7.088;2023-04-15T01:10:36;11.70;;;6.40;;
11735;SDS011;5924;51.398;7.088;2023-04-15T01:13:02;10.50;;;5.80;;
11735;SDS011;5924;51.398;7.088;2023-04-15T01:15:29;7.23;;;6.50;;
11735;SDS011;5924;51.398;7.088;2023-04-15T01:17:56;6.50;;;6.00;;
11735;SDS011;5924;51.398;7.088;2023-04-15T01:20:23;7.10;;;5.57;;
11735;SDS011;5924;51.398;7.088;2023-04-15T01:22:49;7.20;;;6.60;;
11735;SDS011;5924;51.398;7.088;2023-04-15T01:25:18;11.10;;;7.70;;
11735;SDS011;5924;51.398;7.088;2023-04-15T01:27:51;8.60;;;7.33;;
11735;SDS011;5924;51.398;7.088;2023-04-15T01:30:16;11.63;;;7.40;;
11735;SDS011;5924;51.398;7.088;2023-04-15T01:32:42;13.57;;;6.80;;
11735;SDS011;5924;51.398;7.088;2023-04-15T01:35:08;10.60;;;6.73;;
11735;SDS011;5924;51.398;7.088;2023-04-15T01:37:34;7.73;;;6.83;;
11735;SDS011;5924;51.398;7.088;2023-04-15T01:40:01;11.40;;;8.30;;
11735;SDS011;5924;51.398;7.088;2023-04-15T01:42:27;8.00;;;7.20;;
11735;SDS011;5924;51.398;7.088;2023-04-15T01:44:53;16.00;;;9.10;;
11735;SDS011;5924;51.398;7.088;2023-04-15T01:47:18;14.60;;;8.90;;
11735;SDS011;5924;51.398;7.088;2023-04-15T01:49:44;13.10;;;9.50;;
11735;SDS011;5924;51.398;7.088;2023-04-15T01:52:10;9.70;;;8.37;;
11735;SDS011;5924;51.398;7.088;2023-04-15T01:54:36;11.90;;;7.70;;
11735;SDS011;5924;51.398;7.088;2023-04-15T01:57:01;8.90;;;7.17;;
11735;SDS011;5924;51.398;7.088;2023-04-15T01:59:27;7.50;;;6.80;;
11735;SDS011;5924;51.398;7.088;2023-04-15T02:01:53;10.60;;;7.10;;
11735;SDS011;5924;51.398;7.088;2023-04-15T02:04:20;11.37;;;7.70;;
11735;SDS011;5924;51.398;7.088;2023-04-15T02:06:45;8.67;;;7.77;;
11735;SDS011;5924;51.398;7.088;2023-04-15T02:09:11;8.37;;;7.57;;
11735;SDS011;5924;51.398;7.088;2023-04-15T02:11:37;10.97;;;7.53;;
11735;SDS011;5924;51.398;7.088;2023-04-15T02:14:03;11.30;;;7.07;;
11735;SDS011;5924;51.398;7.088;2023-04-15T02:16:29;8.20;;;6.60;;
11735;SDS011;5924;51.398;7.088;2023-04-15T02:18:56;7.53;;;6.50;;
11735;SDS011;5924;51.398;7.088;2023-04-15T02:21:21;8.30;;;6.93;;
11735;SDS011;5924;51.398;7.088;2023-04-15T02:23:47;10.87;;;7.43;;
11735;SDS011;5924;51.398;7.088;2023-04-15T02:26:13;7.53;;;6.83;;
11735;SDS011;5924;51.398;7.088;2023-04-15T02:28:39;13.33;;;8.23;;
11735;SDS011;5924;51.398;7.088;2023-04-15T02:31:05;10.33;;;8.00;;
11735;SDS011;5924;51.398;7.088;2023-04-15T02:33:31;8.70;;;7.40;;
11735;SDS011;5924;51.398;7.088;2023-04-15T02:35:57;9.30;;;7.40;;
11735;SDS011;5924;51.398;7.088;2023-04-15T02:38:23;8.57;;;6.83;;
11735;SDS011;5924;51.398;7.088;2023-04-15T02:40:49;6.83;;;6.10;;
11735;SDS011;5924;51.398;7.088;2023-04-15T02:43:15;8.10;;;7.20;;
11735;SDS011;5924;51.398;7.088;2023-04-15T02:45:41;11.00;;;7.57;;
11735;SDS011;5924;51.398;7.088;2023-04-15T02:48:07;8.23;;;7.30;;
11735;SDS011;5924;51.398;7.088;2023-04-15T02:50:33;7.93;;;7.00;;
11735;SDS011;5924;51.398;7.088;2023-04-15T02:52:59;9.73;;;7.50;;
11735;SDS011;5924;51.398;7.088;2023-04-15T02:55:26;8.03;;;7.40;;
11735;SDS011;5924;51.398;7.088;2023-04-15T02:57:52;8.83;;;7.30;;
11735;SDS011;5924;51.398;7.088;2023-04-15T03:00:18;10.80;;;8.20;;
11735;SDS011;5924;51.398;7.088;2023-04-15T03:02:44;11.83;;;8.00;;
11735;SDS011;5924;51.398;7.088;2023-04-15T03:05:11;9.17;;;7.43;;
11735;SDS011;5924;51.398;7.088;2023-04-15T03:07:37;9.80;;;7.00;;
11735;SDS011;5924;51.398;7.088;2023-04-15T03:10:04;10.60;;;7.60;;
11735;SDS011;5924;51.398;7.088;2023-04-15T03:12:31;10.70;;;8.23;;
11735;SDS011;5924;51.398;7.088;2023-04-15T03:14:56;9.57;;;7.70;;
11735;SDS011;5924;51.398;7.088;2023-04-15T03:17:22;11.00;;;7.57;;
11735;SDS011;5924;51.398;7.088;2023-04-15T03:19:47;12.93;;;8.30;;
11735;SDS011;5924;51.398;7.088;2023-04-15T03:22:14;11.73;;;8.10;;
11735;SDS011;5924;51.398;7.088;2023-04-15T03:24:40;10.50;;;8.03;;
11735;SDS011;5924;51.398;7.088;2023-04-15T03:27:05;9.40;;;8.47;;
11735;SDS011;5924;51.398;7.088;2023-04-15T03:29:32;10.80;;;8.30;;
11735;SDS011;5924;51.398;7.088;2023-04-15T03:31:57;9.30;;;8.30;;
11735;SDS011;5924;51.398;7.088;2023-04-15T03:34:23;10.37;;;8.23;;
11735;SDS011;5924;51.398;7.088;2023-04-15T03:36:49;9.30;;;7.37;;
11735;SDS011;5924;51.398;7.088;2023-04-15T03:39:14;10.77;;;7.97;;
11735;SDS011;5924;51.398;7.088;2023-04-15T03:41:40;7.97;;;7.20;;
11735;SDS011;5924;51.398;7.088;2023-04-15T03:44:06;8.07;;;7.37;;
11735;SDS011;5924;51.398;7.088;2023-04-15T03:46:31;7.57;;;6.93;;
11735;SDS011;5924;51.398;7.088;2023-04-15T03:48:57;9.90;;;7.70;;
11735;SDS011;5924;51.398;7.088;2023-04-15T03:51:23;9.47;;;8.33;;
11735;SDS011;5924;51.398;7.088;2023-04-15T03:53:49;11.10;;;9.13;;
11735;SDS011;5924;51.398;7.088;2023-04-15T03:56:15;10.00;;;8.97;;
11735;SDS011;5924;51.398;7.088;2023-04-15T03:58:41;11.03;;;7.83;;
11735;SDS011;5924;51.398;7.088;2023-04-15T04:01:06;8.97;;;8.10;;
11735;SDS011;5924;51.398;7.088;2023-04-15T04:03:32;13.33;;;8.10;;
11735;SDS011;5924;51.398;7.088;2023-04-15T04:05:58;8.97;;;7.63;;
11735;SDS011;5924;51.398;7.088;2023-04-15T04:08:24;11.40;;;8.10;;
11735;SDS011;5924;51.398;7.088;2023-04-15T04:10:51;10.07;;;8.50;;
11735;SDS011;5924;51.398;7.088;2023-04-15T04:13:16;12.23;;;8.10;;
11735;SDS011;5924;51.398;7.088;2023-04-15T04:15:42;12.43;;;8.30;;
11735;SDS011;5924;51.398;7.088;2023-04-15T04:18:08;11.47;;;8.03;;
11735;SDS011;5924;51.398;7.088;2023-04-15T04:20:33;7.87;;;7.27;;
11735;SDS011;5924;51.398;7.088;2023-04-15T04:22:59;11.07;;;7.27;;
11735;SDS011;5924;51.398;7.088;2023-04-15T04:25:25;9.33;;;8.27;;
11735;SDS011;5924;51.398;7.088;2023-04-15T04:27:51;10.83;;;9.70;;
11735;SDS011;5924;51.398;7.088;2023-04-15T04:30:16;14.33;;;9.00;;
11735;SDS011;5924;51.398;7.088;2023-04-15T04:32:42;9.73;;;8.20;;
11735;SDS011;5924;51.398;7.088;2023-04-15T04:35:08;10.27;;;8.67;;
11735;SDS011;5924;51.398;7.088;2023-04-15T04:37:33;9.40;;;8.40;;
11735;SDS011;5924;51.398;7.088;2023-04-15T04:39:59;9.20;;;8.13;;
11735;SDS011;5924;51.398;7.088;2023-04-15T04:42:25;9.00;;;8.13;;
11735;SDS011;5924;51.398;7.088;2023-04-15T04:44:50;8.53;;;7.73;;
11735;SDS011;5924;51.398;7.088;2023-04-15T04:47:16;10.70;;;9.50;;
11735;SDS011;5924;51.398;7.088;2023-04-15T04:49:42;10.97;;;8.60;;
11735;SDS011;5924;51.398;7.088;2023-04-15T04:52:07;10.03;;;9.03;;
11735;SDS011;5924;51.398;7.088;2023-04-15T04:54:33;10.67;;;8.37;;
11735;SDS011;5924;51.398;7.088;2023-04-15T04:56:59;14.80;;;8.70;;
11735;SDS011;5924;51.398;7.088;2023-04-15T04:59:24;11.60;;;8.90;;
11735;SDS011;5924;51.398;7.088;2023-04-15T05:01:50;10.50;;;8.97;;
11735;SDS011;5924;51.398;7.088;2023-04-15T05:04:16;8.23;;;7.43;;
11735;SDS011;5924;51.398;7.088;2023-04-15T05:06:42;12.80;;;10.77;;
11735;SDS011;5924;51.398;7.088;2023-04-15T05:09:07;21.07;;;12.60;;
11735;SDS011;5924;51.398;7.088;2023-04-15T05:11:33;41.80;;;24.17;;
11735;SDS011;5924;51.398;7.088;2023-04-15T05:13:59;32.20;;;21.90;;
11735;SDS011;5924;51.398;7.088;2023-04-15T05:16:26;33.30;;;21.47;;
11735;SDS011;5924;51.398;7.088;2023-04-15T05:18:51;36.97;;;24.20;;
11735;SDS011;5924;51.398;7.088;2023-04-15T05:21:17;32.07;;;21.37;;
11735;SDS011;5924;51.398;7.088;2023-04-15T05:23:43;32.03;;;21.13;;
11735;SDS011;5924;51.398;7.088;2023-04-15T05:26:09;27.40;;;18.93;;
11735;SDS011;5924;51.398;7.088;2023-04-15T05:28:35;24.93;;;16.73;;
11735;SDS011;5924;51.398;7.088;2023-04-15T05:31:01;24.60;;;15.40;;
11735;SDS011;5924;51.398;7.088;2023-04-15T05:33:26;20.17;;;14.53;;
11735;SDS011;5924;51.398;7.088;2023-04-15T05:35:52;27.13;;;15.87;;
11735;SDS011;5924;51.398;7.088;2023-04-15T05:38:17;19.67;;;14.00;;
11735;SDS011;5924;51.398;7.088;2023-04-15T05:40:43;22.67;;;15.23;;
11735;SDS011;5924;51.398;7.088;2023-04-15T05:43:09;16.90;;;13.97;;
11735;SDS011;5924;51.398;7.088;2023-04-15T05:45:34;17.40;;;14.47;;
11735;SDS011;5924;51.398;7.088;2023-04-15T05:48:00;20.70;;;14.30;;
11735;SDS011;5924;51.398;7.088;2023-04-15T05:50:26;20.47;;;15.20;;
11735;SDS011;5924;51.398;7.088;2023-04-15T05:52:51;21.73;;;15.73;;
11735;SDS011;5924;51.398;7.088;2023-04-15T05:55:17;27.53;;;15.60;;
11735;SDS011;5924;51.398;7.088;2023-04-15T05:57:42;23.70;;;15.33;;
11735;SDS011;5924;51.398;7.088;2023-04-15T06:00:08;23.47;;;14.70;;
11735;SDS011;5924;51.398;7.088;2023-04-15T06:02:34;22.17;;;13.70;;
11735;SDS011;5924;51.398;7.088;2023-04-15T06:05:00;21.50;;;12.83;;
11735;SDS011;5924;51.398;7.088;2023-04-15T06:07:26;16.37;;;13.03;;
11735;SDS011;5924;51.398;7.088;2023-04-15T06:09:52;17.60;;;13.27;;
11735;SDS011;5924;51.398;7.088;2023-04-15T06:12:18;18.67;;;12.93;;
11735;SDS011;5924;51.398;7.088;2023-04-15T06:14:44;20.70;;;13.20;;
11735;SDS011;5924;51.398;7.088;2023-04-15T06:17:09;20.03;;;12.37;;
11735;SDS011;5924;51.398;7.088;2023-04-15T06:19:35;23.33;;;15.37;;
11735;SDS011;5924;51.398;7.088;2023-04-15T06:22:01;22.43;;;12.17;;
11735;SDS011;5924;51.398;7.088;2023-04-15T06:24:27;23.97;;;13.07;;
11735;SDS011;5924;51.398;7.088;2023-04-15T06:26:53;16.60;;;12.80;;
11735;SDS011;5924;51.398;7.088;2023-04-15T06:29:19;19.20;;;13.33;;
11735;SDS011;5924;51.398;7.088;2023-04-15T06:31:46;16.00;;;12.67;;
11735;SDS011;5924;51.398;7.088;2023-04-15T06:34:12;22.80;;;15.63;;
11735;SDS011;5924;51.398;7.088;2023-04-15T06:36:38;23.33;;;13.63;;
11735;SDS011;5924;51.398;7.088;2023-04-15T06:39:03;21.77;;;13.63;;
11735;SDS011;5924;51.398;7.088;2023-04-15T06:41:29;16.17;;;11.87;;
11735;SDS011;5924;51.398;7.088;2023-04-15T06:43:55;16.53;;;12.03;;
11735;SDS011;5924;51.398;7.088;2023-04-15T06:46:20;19.50;;;12.40;;
11735;SDS011;5924;51.398;7.088;2023-04-15T06:48:46;19.00;;;11.83;;
11735;SDS011;5924;51.398;7.088;2023-04-15T06:51:12;13.40;;;11.20;;
11735;SDS011;5924;51.398;7.088;2023-04-15T06:53:37;19.77;;;12.73;;
11735;SDS011;5924;51.398;7.088;2023-04-15T06:56:06;11.90;;;10.50;;
11735;SDS011;5924;51.398;7.088;2023-04-15T06:58:34;15.87;;;12.23;;
11735;SDS011;5924;51.398;7.088;2023-04-15T07:01:00;19.20;;;12.80;;
11735;SDS011;5924;51.398;7.088;2023-04-15T07:03:27;26.90;;;15.20;;
11735;SDS011;5924;51.398;7.088;2023-04-15T07:05:53;22.10;;;16.40;;
11735;SDS011;5924;51.398;7.088;2023-04-15T07:08:19;22.67;;;16.50;;
11735;SDS011;5924;51.398;7.088;2023-04-15T07:10:45;22.10;;;15.80;;
11735;SDS011;5924;51.398;7.088;2023-04-15T07:13:11;26.20;;;16.60;;
11735;SDS011;5924;51.398;7.088;2023-04-15T07:15:37;24.30;;;16.40;;
11735;SDS011;5924;51.398;7.088;2023-04-15T07:18:02;26.97;;;18.53;;
11735;SDS011;5924;51.398;7.088;2023-04-15T07:20:28;23.40;;;16.13;;
11735;SDS011;5924;51.398;7.088;2023-04-15T07:22:54;22.57;;;16.07;;
11735;SDS011;5924;51.398;7.088;2023-04-15T07:25:20;20.17;;;15.87;;
11735;SDS011;5924;51.398;7.088;2023-04-15T07:27:46;26.50;;;16.63;;
11735;SDS011;5924;51.398;7.088;2023-04-15T07:30:12;22.17;;;17.27;;
11735;SDS011;5924;51.398;7.088;2023-04-15T07:32:38;24.70;;;16.33;;
11735;SDS011;5924;51.398;7.088;2023-04-15T07:35:03;25.77;;;16.20;;
11735;SDS011;5924;51.398;7.088;2023-04-15T07:37:29;24.63;;;15.37;;
11735;SDS011;5924;51.398;7.088;2023-04-15T07:39:55;28.70;;;16.63;;
11735;SDS011;5924;51.398;7.088;2023-04-15T07:42:21;22.57;;;16.37;;
11735;SDS011;5924;51.398;7.088;2023-04-15T07:44:47;17.60;;;14.57;;
11735;SDS011;5924;51.398;7.088;2023-04-15T07:47:12;22.20;;;14.97;;
11735;SDS011;5924;51.398;7.088;2023-04-15T07:49:38;20.10;;;14.37;;
11735;SDS011;5924;51.398;7.088;2023-04-15T07:52:05;16.87;;;14.07;;
11735;SDS011;5924;51.398;7.088;2023-04-15T07:54:31;21.90;;;14.33;;
11735;SDS011;5924;51.398;7.088;2023-04-15T07:56:57;18.77;;;13.47;;
11735;SDS011;5924;51.398;7.088;2023-04-15T07:59:23;17.43;;;12.83;;
11735;SDS011;5924;51.398;7.088;2023-04-15T08:01:48;18.97;;;13.30;;
11735;SDS011;5924;51.398;7.088;2023-04-15T08:04:14;13.67;;;12.37;;
11735;SDS011;5924;51.398;7.088;2023-04-15T08:06:40;14.13;;;11.33;;
11735;SDS011;5924;51.398;7.088;2023-04-15T08:09:05;12.07;;;10.87;;
11735;SDS011;5924;51.398;7.088;2023-04-15T08:11:33;21.30;;;12.33;;
11735;SDS011;5924;51.398;7.088;2023-04-15T08:13:59;12.60;;;10.33;;
11735;SDS011;5924;51.398;7.088;2023-04-15T08:16:25;17.10;;;12.20;;
11735;SDS011;5924;51.398;7.088;2023-04-15T08:18:52;10.93;;;9.80;;
11735;SDS011;5924;51.398;7.088;2023-04-15T08:21:19;13.57;;;10.43;;
11735;SDS011;5924;51.398;7.088;2023-04-15T08:23:46;10.70;;;9.60;;
11735;SDS011;5924;51.398;7.088;2023-04-15T08:26:14;9.97;;;8.97;;
11735;SDS011;5924;51.398;7.088;2023-04-15T08:28:40;9.53;;;8.63;;
11735;SDS011;5924;51.398;7.088;2023-04-15T08:31:06;7.87;;;7.27;;
11735;SDS011;5924;51.398;7.088;2023-04-15T08:33:33;13.90;;;7.90;;
11735;SDS011;5924;51.398;7.088;2023-04-15T08:35:59;7.43;;;6.87;;
11735;SDS011;5924;51.398;7.088;2023-04-15T08:38:25;8.70;;;7.50;;
11735;SDS011;5924;51.398;7.088;2023-04-15T08:40:51;7.00;;;6.50;;
11735;SDS011;5924;51.398;7.088;2023-04-15T08:43:20;7.00;;;6.50;;
11735;SDS011;5924;51.398;7.088;2023-04-15T08:45:51;7.20;;;6.60;;
11735;SDS011;5924;51.398;7.088;2023-04-15T08:48:17;8.33;;;7.67;;
11735;SDS011;5924;51.398;7.088;2023-04-15T08:50:44;7.70;;;6.97;;
11735;SDS011;5924;51.398;7.088;2023-04-15T08:53:11;6.87;;;6.47;;
11735;SDS011;5924;51.398;7.088;2023-04-15T08:55:39;7.50;;;6.87;;
11735;SDS011;5924;51.398;7.088;2023-04-15T08:58:11;7.53;;;6.90;;
11735;SDS011;5924;51.398;7.088;2023-04-15T09:00:37;6.97;;;6.37;;
11735;SDS011;5924;51.398;7.088;2023-04-15T09:03:06;7.07;;;6.47;;
11735;SDS011;5924;51.398;7.088;2023-04-15T09:05:33;6.83;;;6.23;;
11735;SDS011;5924;51.398;7.088;2023-04-15T09:08:00;6.20;;;5.70;;
11735;SDS011;5924;51.398;7.088;2023-04-15T09:10:27;7.60;;;6.83;;
11735;SDS011;5924;51.398;7.088;2023-04-15T09:12:53;5.50;;;5.20;;
11735;SDS011;5924;51.398;7.088;2023-04-15T09:15:19;5.70;;;5.30;;
11735;SDS011;5924;51.398;7.088;2023-04-15T09:17:45;5.27;;;4.87;;
11735;SDS011;5924;51.398;7.088;2023-04-15T09:20:13;6.60;;;5.83;;
11735;SDS011;5924;51.398;7.088;2023-04-15T09:22:40;5.30;;;5.00;;
11735;SDS011;5924;51.398;7.088;2023-04-15T09:27:55;6.63;;;6.13;;
11735;SDS011;5924;51.398;7.088;2023-04-15T09:30:22;6.00;;;5.60;;
11735;SDS011;5924;51.398;7.088;2023-04-15T09:32:54;6.53;;;6.00;;
11735;SDS011;5924;51.398;7.088;2023-04-15T09:35:21;6.20;;;5.53;;
11735;SDS011;5924;51.398;7.088;2023-04-15T09:37:49;5.53;;;5.13;;
11735;SDS011;5924;51.398;7.088;2023-04-15T09:43:00;6.77;;;5.00;;
11735;SDS011;5924;51.398;7.088;2023-04-15T09:45:26;5.10;;;4.80;;
11735;SDS011;5924;51.398;7.088;2023-04-15T09:47:53;5.77;;;5.47;;
11735;SDS011;5924;51.398;7.088;2023-04-15T09:50:19;5.50;;;5.20;;
11735;SDS011;5924;51.398;7.088;2023-04-15T09:52:45;4.80;;;4.60;;
11735;SDS011;5924;51.398;7.088;2023-04-15T09:55:11;4.53;;;4.23;;
11735;SDS011;5924;51.398;7.088;2023-04-15T09:57:38;4.57;;;4.47;;
11735;SDS011;5924;51.398;7.088;2023-04-15T10:00:11;4.17;;;4.07;;
11735;SDS011;5924;51.398;7.088;2023-04-15T10:02:40;4.50;;;4.20;;
11735;SDS011;5924;51.398;7.088;2023-04-15T10:05:10;4.90;;;4.70;;
11735;SDS011;5924;51.398;7.088;2023-04-15T10:07:39;4.87;;;4.57;;
11735;SDS011;5924;51.398;7.088;2023-04-15T10:10:07;4.47;;;4.27;;
11735;SDS011;5924;51.398;7.088;2023-04-15T10:12:33;4.37;;;4.17;;
11735;SDS011;5924;51.398;7.088;2023-04-15T10:15:03;4.60;;;4.33;;
11735;SDS011;5924;51.398;7.088;2023-04-15T10:17:29;3.83;;;3.73;;
11735;SDS011;5924;51.398;7.088;2023-04-15T10:20:02;4.00;;;3.90;;
11735;SDS011;5924;51.398;7.088;2023-04-15T10:22:29;4.20;;;4.10;;
11735;SDS011;5924;51.398;7.088;2023-04-15T10:24:56;4.27;;;4.17;;
11735;SDS011;5924;51.398;7.088;2023-04-15T10:27:23;5.00;;;4.70;;
11735;SDS011;5924;51.398;7.088;2023-04-15T10:29:50;4.57;;;4.47;;
11735;SDS011;5924;51.398;7.088;2023-04-15T10:32:17;4.47;;;4.37;;
11735;SDS011;5924;51.398;7.088;2023-04-15T10:34:45;7.03;;;6.63;;
11735;SDS011;5924;51.398;7.088;2023-04-15T10:37:12;5.67;;;5.20;;
11735;SDS011;5924;51.398;7.088;2023-04-15T10:39:57;6.20;;;5.90;;
11735;SDS011;5924;51.398;7.088;2023-04-15T10:42:23;5.07;;;4.77;;
11735;SDS011;5924;51.398;7.088;2023-04-15T10:44:57;4.87;;;4.67;;
11735;SDS011;5924;51.398;7.088;2023-04-15T10:47:24;5.47;;;4.97;;
11735;SDS011;5924;51.398;7.088;2023-04-15T10:49:50;4.73;;;4.53;;
11735;SDS011;5924;51.398;7.088;2023-04-15T10:52:24;5.50;;;5.20;;
11735;SDS011;5924;51.398;7.088;2023-04-15T10:55:02;4.43;;;4.23;;
11735;SDS011;5924;51.398;7.088;2023-04-15T10:57:38;4.17;;;4.07;;
11735;SDS011;5924;51.398;7.088;2023-04-15T11:05:22;5.60;;;5.40;;
11735;SDS011;5924;51.398;7.088;2023-04-15T11:08:14;5.93;;;5.60;;
11735;SDS011;5924;51.398;7.088;2023-04-15T11:13:16;5.37;;;5.17;;
11735;SDS011;5924;51.398;7.088;2023-04-15T11:15:47;5.93;;;5.63;;
11735;SDS011;5924;51.398;7.088;2023-04-15T11:20:49;5.70;;;5.33;;
11735;SDS011;5924;51.398;7.088;2023-04-15T11:23:26;7.87;;;5.67;;
11735;SDS011;5924;51.398;7.088;2023-04-15T11:25:55;18.20;;;11.50;;
11735;SDS011;5924;51.398;7.088;2023-04-15T11:28:30;8.20;;;7.60;;
11735;SDS011;5924;51.398;7.088;2023-04-15T11:30:57;16.53;;;11.27;;
11735;SDS011;5924;51.398;7.088;2023-04-15T11:33:31;13.07;;;10.70;;
11735;SDS011;5924;51.398;7.088;2023-04-15T11:35:56;10.33;;;9.33;;
11735;SDS011;5924;51.398;7.088;2023-04-15T11:38:23;7.63;;;7.13;;
11735;SDS011;5924;51.398;7.088;2023-04-15T11:40:49;7.50;;;6.90;;
11735;SDS011;5924;51.398;7.088;2023-04-15T11:43:17;7.20;;;6.73;;
11735;SDS011;5924;51.398;7.088;2023-04-15T11:45:52;8.67;;;8.07;;
11735;SDS011;5924;51.398;7.088;2023-04-15T11:48:40;6.97;;;6.50;;
11735;SDS011;5924;51.398;7.088;2023-04-15T11:51:08;7.10;;;6.70;;
11735;SDS011;5924;51.398;7.088;2023-04-15T11:56:03;8.70;;;8.00;;
11735;SDS011;5924;51.398;7.088;2023-04-15T11:58:29;8.63;;;7.33;;
11735;SDS011;5924;51.398;7.088;2023-04-15T12:00:59;6.00;;;5.50;;
11735;SDS011;5924;51.398;7.088;2023-04-15T12:03:28;5.53;;;5.23;;
11735;SDS011;5924;51.398;7.088;2023-04-15T12:16:35;7.80;;;7.03;;
11735;SDS011;5924;51.398;7.088;2023-04-15T12:19:06;6.23;;;5.80;;
11735;SDS011;5924;51.398;7.088;2023-04-15T12:21:36;5.80;;;5.33;;
11735;SDS011;5924;51.398;7.088;2023-04-15T12:24:04;5.03;;;4.80;;
11735;SDS011;5924;51.398;7.088;2023-04-15T12:26:48;6.37;;;5.83;;
11735;SDS011;5924;51.398;7.088;2023-04-15T12:29:18;5.43;;;5.07;;
11735;SDS011;5924;51.398;7.088;2023-04-15T12:31:45;4.67;;;4.47;;
11735;SDS011;5924;51.398;7.088;2023-04-15T12:34:16;5.23;;;4.83;;
11735;SDS011;5924;51.398;7.088;2023-04-15T12:36:42;5.20;;;5.00;;
11735;SDS011;5924;51.398;7.088;2023-04-15T12:39:08;5.93;;;5.53;;
11735;SDS011;5924;51.398;7.088;2023-04-15T12:41:34;4.93;;;4.50;;
11735;SDS011;5924;51.398;7.088;2023-04-15T12:44:00;5.47;;;5.07;;
11735;SDS011;5924;51.398;7.088;2023-04-15T12:46:25;5.20;;;4.90;;
11735;SDS011;5924;51.398;7.088;2023-04-15T12:48:51;6.20;;;5.80;;
11735;SDS011;5924;51.398;7.088;2023-04-15T12:51:17;6.03;;;5.73;;
11735;SDS011;5924;51.398;7.088;2023-04-15T12:53:45;7.10;;;6.60;;
11735;SDS011;5924;51.398;7.088;2023-04-15T12:56:11;6.00;;;5.70;;
11735;SDS011;5924;51.398;7.088;2023-04-15T12:58:37;6.13;;;5.77;;
11735;SDS011;5924;51.398;7.088;2023-04-15T13:01:03;5.50;;;5.20;;
11735;SDS011;5924;51.398;7.088;2023-04-15T13:03:29;4.97;;;4.73;;
11735;SDS011;5924;51.398;7.088;2023-04-15T13:05:54;4.93;;;4.73;;
11735;SDS011;5924;51.398;7.088;2023-04-15T13:08:21;4.27;;;4.17;;
11735;SDS011;5924;51.398;7.088;2023-04-15T13:10:47;5.47;;;5.20;;
11735;SDS011;5924;51.398;7.088;2023-04-15T13:13:13;6.13;;;5.53;;
11735;SDS011;5924;51.398;7.088;2023-04-15T13:15:38;4.60;;;4.30;;
11735;SDS011;5924;51.398;7.088;2023-04-15T13:18:05;4.03;;;3.90;;
11735;SDS011;5924;51.398;7.088;2023-04-15T13:20:32;4.93;;;4.63;;
11735;SDS011;5924;51.398;7.088;2023-04-15T13:22:57;4.57;;;4.20;;
11735;SDS011;5924;51.398;7.088;2023-04-15T13:25:23;5.40;;;5.10;;
11735;SDS011;5924;51.398;7.088;2023-04-15T13:27:50;4.93;;;4.60;;
11735;SDS011;5924;51.398;7.088;2023-04-15T13:30:16;4.73;;;4.53;;
11735;SDS011;5924;51.398;7.088;2023-04-15T13:32:42;5.87;;;5.53;;
11735;SDS011;5924;51.398;7.088;2023-04-15T13:35:08;4.87;;;4.57;;
11735;SDS011;5924;51.398;7.088;2023-04-15T13:37:33;4.10;;;4.00;;
11735;SDS011;5924;51.398;7.088;2023-04-15T13:39:59;4.33;;;4.20;;
11735;SDS011;5924;51.398;7.088;2023-04-15T13:42:25;6.17;;;4.00;;
11735;SDS011;5924;51.398;7.088;2023-04-15T13:44:51;4.80;;;4.70;;
11735;SDS011;5924;51.398;7.088;2023-04-15T13:47:20;5.00;;;4.60;;
11735;SDS011;5924;51.398;7.088;2023-04-15T13:49:46;5.07;;;4.77;;
11735;SDS011;5924;51.398;7.088;2023-04-15T13:52:12;5.60;;;5.30;;
11735;SDS011;5924;51.398;7.088;2023-04-15T13:54:38;5.97;;;5.47;;
11735;SDS011;5924;51.398;7.088;2023-04-15T13:57:04;5.73;;;5.23;;
11735;SDS011;5924;51.398;7.088;2023-04-15T13:59:30;7.10;;;5.40;;
11735;SDS011;5924;51.398;7.088;2023-04-15T14:01:57;6.37;;;5.90;;
11735;SDS011;5924;51.398;7.088;2023-04-15T14:04:22;5.93;;;5.20;;
11735;SDS011;5924;51.398;7.088;2023-04-15T14:06:48;5.77;;;5.20;;
11735;SDS011;5924;51.398;7.088;2023-04-15T14:09:14;9.50;;;5.80;;
11735;SDS011;5924;51.398;7.088;2023-04-15T14:11:40;7.30;;;5.17;;
11735;SDS011;5924;51.398;7.088;2023-04-15T14:14:06;7.43;;;6.17;;
11735;SDS011;5924;51.398;7.088;2023-04-15T14:16:32;9.00;;;5.67;;
11735;SDS011;5924;51.398;7.088;2023-04-15T14:18:58;5.47;;;5.00;;
11735;SDS011;5924;51.398;7.088;2023-04-15T14:21:24;5.33;;;5.03;;
11735;SDS011;5924;51.398;7.088;2023-04-15T14:23:51;4.83;;;4.63;;
11735;SDS011;5924;51.398;7.088;2023-04-15T14:26:18;5.20;;;4.90;;
11735;SDS011;5924;51.398;7.088;2023-04-15T14:28:43;5.83;;;5.43;;
11735;SDS011;5924;51.398;7.088;2023-04-15T14:31:09;5.47;;;4.93;;
11735;SDS011;5924;51.398;7.088;2023-04-15T14:33:35;6.47;;;4.33;;
11735;SDS011;5924;51.398;7.088;2023-04-15T14:36:01;5.30;;;5.00;;
11735;SDS011;5924;51.398;7.088;2023-04-15T14:38:26;5.60;;;5.20;;
11735;SDS011;5924;51.398;7.088;2023-04-15T14:40:52;5.40;;;5.00;;
11735;SDS011;5924;51.398;7.088;2023-04-15T14:43:18;5.80;;;5.23;;
11735;SDS011;5924;51.398;7.088;2023-04-15T14:45:45;6.50;;;4.83;;
11735;SDS011;5924;51.398;7.088;2023-04-15T14:48:10;7.83;;;4.60;;
11735;SDS011;5924;51.398;7.088;2023-04-15T14:50:36;9.23;;;6.33;;
11735;SDS011;5924;51.398;7.088;2023-04-15T14:53:02;7.70;;;6.83;;
11735;SDS011;5924;51.398;7.088;2023-04-15T14:55:28;5.80;;;5.50;;
11735;SDS011;5924;51.398;7.088;2023-04-15T14:57:54;5.13;;;4.73;;
11735;SDS011;5924;51.398;7.088;2023-04-15T15:00:20;4.90;;;4.47;;
11735;SDS011;5924;51.398;7.088;2023-04-15T15:02:45;9.17;;;4.87;;
11735;SDS011;5924;51.398;7.088;2023-04-15T15:05:11;5.93;;;5.43;;
11735;SDS011;5924;51.398;7.088;2023-04-15T15:07:37;5.10;;;4.90;;
11735;SDS011;5924;51.398;7.088;2023-04-15T15:10:04;5.50;;;5.00;;
11735;SDS011;5924;51.398;7.088;2023-04-15T15:12:32;5.37;;;4.87;;
11735;SDS011;5924;51.398;7.088;2023-04-15T15:14:58;4.47;;;4.27;;
11735;SDS011;5924;51.398;7.088;2023-04-15T15:17:24;4.80;;;4.40;;
11735;SDS011;5924;51.398;7.088;2023-04-15T15:19:49;5.90;;;5.40;;